Terminal Aerodrome Forecast
Issued by NWS

Home | Current Version | Previous Version | Text Only | Print | Product List | Glossary On
Versions: 1 2 3 4 5 6 7 8 9 10 11 12 13 14 15 16 17 18
000
FTUS44 KLZK 020500
TAFPBF
TAF
KPBF 020520Z 0206/0306 02010KT 6SM BR SCT005 OVC015
      TEMPO 0206/0209 BKN005
     FM021200 03005KT 5SM -SHRA BR OVC012
     FM021700 08008KT P6SM OVC007
     FM022100 12007KT P6SM OVC010
     FM030100 14005KT 4SM BR OVC007=

USA.gov is the U.S. government's official web portal to all federal, state and local government web resources and services.